Time;durP1;ratioP1;P1;durP2;ratioP2;P2;SDS_P1;SDS_P2;PMS_P1;PMS_P2;Temp;Humidity;BMP_temperature;BMP_pressure;BME280_temperature;BME280_humidity;BME280_pressure;Samples;Min_cycle;Max_cycle;Signal;HPM_P1;HPM_P2
2024/03/02 00:00:11;;;;;;;24.20;15.23;;;12.60;77.90;;;;;;5008718;28;20145;-73
2024/03/02 00:02:41;;;;;;;24.45;14.80;;;12.60;77.90;;;;;;5008937;28;20042;-74
2024/03/02 00:05:11;;;;;;;21.63;14.40;;;12.60;78.00;;;;;;5009948;28;20476;-74
2024/03/02 00:07:46;;;;;;;24.40;14.70;;;12.60;78.40;;;;;;5009295;28;20407;-74
2024/03/02 00:10:16;;;;;;;21.85;14.20;;;12.60;78.10;;;;;;5009480;28;20100;-74
2024/03/02 00:12:42;;;;;;;21.13;14.40;;;12.60;77.90;;;;;;5010117;28;20432;-73
2024/03/02 00:15:52;;;;;;;21.80;14.80;;;12.60;77.80;;;;;;5008493;28;20034;-74
2024/03/02 00:18:32;;;;;;;22.08;14.27;;;12.60;77.80;;;;;;5003251;28;20501;-74
2024/03/02 00:21:02;;;;;;;20.75;14.32;;;12.60;77.50;;;;;;5008369;28;20046;-73
2024/03/02 00:23:38;;;;;;;21.88;13.82;;;12.60;77.80;;;;;;5008514;28;20076;-73
2024/03/02 00:26:06;;;;;;;23.08;14.75;;;12.60;77.90;;;;;;5009050;28;20129;-73
2024/03/02 00:28:36;;;;;;;23.27;14.45;;;12.60;77.80;;;;;;5008284;28;20046;-73
2024/03/02 00:31:11;;;;;;;24.02;14.77;;;12.60;78.10;;;;;;5008619;28;20041;-72
2024/03/02 00:33:53;;;;;;;21.13;14.48;;;12.60;77.90;;;;;;5009793;28;20867;-73
2024/03/02 00:36:26;;;;;;;27.35;14.63;;;12.60;77.70;;;;;;5009392;28;20037;-73
2024/03/02 00:38:54;;;;;;;23.27;14.85;;;12.50;77.70;;;;;;5009442;28;20041;-73
2024/03/02 00:41:29;;;;;;;21.13;14.20;;;12.50;77.40;;;;;;5008220;28;20121;-72
2024/03/02 00:44:06;;;;;;;21.23;13.98;;;12.50;77.20;;;;;;5010170;28;20095;-72
2024/03/02 00:46:39;;;;;;;20.67;14.70;;;12.60;77.10;;;;;;5009641;28;20724;-72
2024/03/02 00:49:17;;;;;;;21.83;14.55;;;12.60;77.30;;;;;;5007843;28;20058;-72
2024/03/02 00:51:50;;;;;;;21.83;14.73;;;12.50;77.40;;;;;;5009373;28;20092;-72
2024/03/02 00:54:20;;;;;;;21.65;14.63;;;12.50;77.30;;;;;;5009618;28;20133;-73
2024/03/02 00:56:47;;;;;;;24.02;15.25;;;12.50;77.30;;;;;;5009353;28;20065;-72
2024/03/02 00:59:16;;;;;;;20.80;13.57;;;12.50;77.20;;;;;;5007253;28;20052;-72
2024/03/02 01:01:45;;;;;;;22.23;14.48;;;12.50;77.20;;;;;;5009650;28;20033;-72
2024/03/02 01:04:12;;;;;;;18.42;13.85;;;12.50;77.30;;;;;;5009329;28;20042;-72
2024/03/02 01:06:42;;;;;;;19.48;13.65;;;12.50;77.30;;;;;;5007917;28;20124;-72
2024/03/02 01:09:14;;;;;;;22.42;14.55;;;12.50;77.50;;;;;;5009472;28;20036;-73
2024/03/02 01:11:45;;;;;;;22.80;14.95;;;12.50;77.50;;;;;;5008084;28;20057;-72
2024/03/02 01:14:11;;;;;;;22.17;13.82;;;12.50;77.40;;;;;;5008067;28;20037;-73
2024/03/02 01:16:37;;;;;;;21.65;14.38;;;12.50;77.20;;;;;;5009725;28;20469;-73
2024/03/02 01:19:03;;;;;;;20.58;14.38;;;12.50;77.40;;;;;;5009650;28;20038;-73
2024/03/02 01:21:36;;;;;;;19.02;13.40;;;12.50;77.30;;;;;;5009261;28;20060;-74
2024/03/02 01:24:07;;;;;;;20.67;13.63;;;12.50;77.10;;;;;;5009175;28;20036;-74
2024/03/02 01:26:33;;;;;;;21.20;13.98;;;12.50;77.10;;;;;;5009192;28;20121;-73
2024/03/02 01:28:59;;;;;;;21.08;14.00;;;12.50;77.30;;;;;;5009397;28;20487;-73
2024/03/02 01:31:25;;;;;;;21.00;13.63;;;12.50;77.20;;;;;;5007522;28;20030;-73
2024/03/02 01:33:54;;;;;;;23.40;13.55;;;12.50;77.20;;;;;;5009083;28;20100;-73
2024/03/02 01:36:20;;;;;;;20.90;14.05;;;12.50;77.40;;;;;;5009100;28;20034;-73
2024/03/02 01:38:49;;;;;;;20.58;14.07;;;12.50;77.40;;;;;;5008968;28;20126;-74
2024/03/02 01:41:25;;;;;;;21.10;14.18;;;12.50;77.20;;;;;;5008638;28;20488;-74
2024/03/02 01:43:56;;;;;;;21.25;13.63;;;12.50;77.20;;;;;;5012525;28;20033;-73
2024/03/02 01:46:25;;;;;;;20.40;13.10;;;12.40;77.10;;;;;;5012534;28;20605;-73
2024/03/02 01:48:54;;;;;;;20.95;14.13;;;12.40;77.10;;;;;;5010855;28;20034;-73
2024/03/02 01:51:33;;;;;;;20.08;14.05;;;12.50;76.80;;;;;;5011798;28;20108;-73
2024/03/02 01:53:58;;;;;;;23.48;14.32;;;12.50;77.00;;;;;;5010449;28;20120;-73
2024/03/02 01:56:33;;;;;;;22.63;14.82;;;12.50;76.60;;;;;;5011486;28;20053;-73
2024/03/02 01:59:03;;;;;;;19.70;14.20;;;12.50;76.70;;;;;;5012132;28;20037;-74
2024/03/02 02:01:35;;;;;;;21.30;14.18;;;12.50;76.80;;;;;;5011331;28;20049;-73
2024/03/02 02:04:03;;;;;;;22.58;14.50;;;12.40;76.90;;;;;;5010794;28;20504;-74
2024/03/02 02:06:29;;;;;;;21.30;14.30;;;12.50;76.90;;;;;;5011378;28;20045;-73
2024/03/02 02:08:58;;;;;;;20.25;14.52;;;12.40;76.90;;;;;;5011381;28;20049;-74
2024/03/02 02:11:30;;;;;;;25.20;15.43;;;12.40;77.10;;;;;;5011018;28;20033;-73
2024/03/02 02:13:56;;;;;;;23.88;14.82;;;12.40;76.90;;;;;;5010781;28;20053;-73
2024/03/02 02:16:22;;;;;;;23.05;14.60;;;12.40;76.80;;;;;;5011598;28;20084;-73
2024/03/02 02:18:54;;;;;;;21.58;14.60;;;12.40;76.70;;;;;;5011520;28;20655;-74
2024/03/02 02:21:23;;;;;;;24.67;15.52;;;12.40;76.70;;;;;;5011430;28;20046;-74
2024/03/02 02:23:50;;;;;;;24.10;15.25;;;12.40;76.50;;;;;;5011714;28;20061;-72
2024/03/02 02:26:16;;;;;;;23.17;15.27;;;12.40;76.50;;;;;;5010511;28;20046;-75
2024/03/02 02:28:48;;;;;;;21.17;14.63;;;12.40;77.20;;;;;;5012139;28;20045;-74
2024/03/02 02:31:14;;;;;;;25.00;15.27;;;12.40;76.70;;;;;;5011346;28;20048;-74
2024/03/02 02:33:43;;;;;;;22.33;15.15;;;12.40;76.80;;;;;;5010179;28;20637;-73
2024/03/02 02:36:10;;;;;;;24.90;14.70;;;12.40;76.60;;;;;;4993794;28;20042;-72
2024/03/02 02:38:42;;;;;;;21.48;14.30;;;12.40;76.80;;;;;;5011416;28;20034;-73
2024/03/02 02:41:16;;;;;;;23.88;14.82;;;12.40;76.70;;;;;;5011089;28;20065;-73
2024/03/02 02:43:48;;;;;;;21.17;14.93;;;12.40;76.40;;;;;;5010603;28;20171;-73
2024/03/02 02:46:17;;;;;;;24.65;15.48;;;12.40;76.30;;;;;;5011409;28;20088;-73
2024/03/02 02:48:46;;;;;;;23.13;15.88;;;12.40;76.10;;;;;;5010226;28;20034;-73
2024/03/02 02:51:14;;;;;;;23.67;16.15;;;12.40;76.10;;;;;;5010928;28;20401;-74
2024/03/02 02:53:43;;;;;;;24.02;14.88;;;12.40;76.20;;;;;;5011028;28;20045;-74
2024/03/02 02:56:09;;;;;;;26.83;15.75;;;12.40;76.10;;;;;;5011307;28;20122;-73
2024/03/02 02:58:35;;;;;;;22.05;15.07;;;12.40;76.00;;;;;;5011823;28;20033;-74
2024/03/02 03:01:11;;;;;;;23.83;15.93;;;12.40;76.10;;;;;;5010812;28;20044;-73
2024/03/02 03:03:39;;;;;;;25.55;16.45;;;12.40;76.10;;;;;;5011443;28;20415;-74
2024/03/02 03:06:05;;;;;;;22.05;16.33;;;12.40;76.00;;;;;;5011113;28;20041;-74
2024/03/02 03:08:31;;;;;;;24.05;16.73;;;12.40;76.00;;;;;;5010133;28;20056;-73
2024/03/02 03:11:04;;;;;;;23.35;16.55;;;12.40;76.20;;;;;;5011467;28;20052;-73
2024/03/02 03:13:39;;;;;;;25.23;17.30;;;12.40;76.20;;;;;;5010938;28;20449;-73
2024/03/02 03:16:05;;;;;;;26.38;17.77;;;12.40;76.20;;;;;;5010806;28;20038;-73
2024/03/02 03:18:31;;;;;;;27.10;18.20;;;12.40;76.20;;;;;;5010952;28;20038;-75
2024/03/02 03:21:03;;;;;;;26.08;18.08;;;12.40;76.00;;;;;;5010437;28;20136;-73
2024/03/02 03:23:32;;;;;;;28.13;19.25;;;12.40;75.80;;;;;;5010491;28;20052;-72
2024/03/02 03:26:01;;;;;;;26.13;18.30;;;12.40;76.00;;;;;;5010840;28;20029;-73
2024/03/02 03:28:27;;;;;;;28.48;19.23;;;12.40;75.60;;;;;;5010635;28;20030;-73
2024/03/02 03:30:55;;;;;;;26.75;18.48;;;12.40;75.60;;;;;;5010105;28;20084;-73
2024/03/02 03:33:34;;;;;;;30.27;20.02;;;12.40;76.00;;;;;;5009984;28;20060;-72
2024/03/02 03:36:03;;;;;;;28.50;19.35;;;12.40;75.80;;;;;;5010213;28;20045;-73
2024/03/02 03:38:30;;;;;;;29.08;19.27;;;12.40;75.70;;;;;;5010437;28;20068;-73
2024/03/02 03:40:56;;;;;;;27.45;19.55;;;12.40;75.70;;;;;;5010671;28;20029;-73
2024/03/02 03:43:26;;;;;;;27.80;19.48;;;12.30;75.70;;;;;;5009991;28;20042;-73
2024/03/02 03:45:52;;;;;;;29.75;19.38;;;12.30;75.40;;;;;;5010040;28;20076;-73
2024/03/02 03:48:18;;;;;;;33.63;20.73;;;12.30;75.30;;;;;;5009747;28;20123;-74
2024/03/02 03:50:44;;;;;;;28.67;20.13;;;12.30;75.50;;;;;;5009370;28;20029;-73
2024/03/02 03:53:22;;;;;;;28.17;19.23;;;12.30;75.30;;;;;;5009994;28;20049;-73
2024/03/02 03:55:49;;;;;;;27.30;19.33;;;12.40;75.50;;;;;;5010097;28;20064;-73
2024/03/02 03:58:20;;;;;;;30.35;19.15;;;12.30;75.40;;;;;;5010075;28;20253;-73
2024/03/02 04:00:52;;;;;;;27.05;18.60;;;12.30;75.50;;;;;;5009871;28;20452;-74
2024/03/02 04:05:31;;;;;;;26.88;19.10;;;12.40;74.90;;;;;;5060961;27;20864;-74
2024/03/02 04:08:01;;;;;;;29.13;19.27;;;12.30;75.60;;;;;;5015742;28;20392;-74
2024/03/02 04:10:34;;;;;;;29.08;19.45;;;12.30;75.40;;;;;;4999728;28;20156;-74
2024/03/02 04:13:00;;;;;;;31.35;19.38;;;12.30;75.60;;;;;;5016600;28;20076;-73
2024/03/02 04:15:31;;;;;;;26.88;18.27;;;12.30;75.40;;;;;;4994997;28;20297;-74
2024/03/02 04:18:12;;;;;;;26.05;19.40;;;12.30;75.40;;;;;;4984734;28;20037;-73
2024/03/02 04:20:38;;;;;;;27.90;19.50;;;12.30;75.20;;;;;;5015121;28;20034;-74
2024/03/02 04:23:07;;;;;;;30.52;19.98;;;12.30;75.20;;;;;;5015211;28;20033;-73
2024/03/02 04:25:36;;;;;;;25.55;18.08;;;12.30;75.00;;;;;;5013728;28;20038;-73
2024/03/02 04:28:05;;;;;;;28.50;18.88;;;12.30;75.30;;;;;;5000407;28;20530;-73
2024/03/02 04:30:37;;;;;;;27.17;19.15;;;12.30;75.20;;;;;;5014208;28;20121;-72
2024/03/02 04:33:12;;;;;;;28.85;18.95;;;12.30;75.00;;;;;;5014811;28;20040;-73
2024/03/02 04:35:40;;;;;;;27.27;19.23;;;12.30;75.40;;;;;;5015434;28;20508;-71
2024/03/02 04:38:09;;;;;;;28.20;18.88;;;12.30;75.30;;;;;;5016749;28;21440;-72
2024/03/02 04:40:41;;;;;;;26.30;19.15;;;12.30;75.30;;;;;;5015281;28;20110;-73
2024/03/02 04:43:10;;;;;;;24.20;17.60;;;12.30;75.00;;;;;;5015654;28;20040;-73
2024/03/02 04:45:39;;;;;;;27.20;18.85;;;12.30;75.00;;;;;;5013660;28;20040;-74
2024/03/02 04:48:06;;;;;;;27.55;19.50;;;12.30;75.60;;;;;;5030078;28;20034;-73
2024/03/02 04:50:34;;;;;;;29.33;20.67;;;12.30;74.80;;;;;;5015382;28;20041;-73
2024/03/02 04:53:06;;;;;;;29.00;20.65;;;12.30;74.80;;;;;;5017875;28;20516;-73
2024/03/02 04:58:07;;;;;;;30.75;21.17;;;12.30;74.70;;;;;;5015765;28;20103;-74
2024/03/02 05:00:34;;;;;;;30.60;22.00;;;12.30;74.60;;;;;;5033113;28;20120;-73
2024/03/02 05:03:06;;;;;;;33.90;23.67;;;12.30;74.50;;;;;;5032759;28;20036;-73
2024/03/02 05:05:35;;;;;;;32.95;22.67;;;12.30;74.60;;;;;;5033708;28;20120;-73
2024/03/02 05:08:01;;;;;;;31.08;22.35;;;12.30;74.70;;;;;;5034004;28;20128;-73
2024/03/02 05:10:30;;;;;;;33.33;23.38;;;12.30;74.90;;;;;;5039054;28;20034;-73
2024/03/02 05:12:59;;;;;;;36.28;22.65;;;12.30;75.00;;;;;;5036224;28;20095;-73
2024/03/02 05:15:31;;;;;;;31.42;21.48;;;12.30;74.90;;;;;;5026141;28;20650;-73
2024/03/02 05:18:02;;;;;;;32.70;21.73;;;12.30;75.00;;;;;;5004760;28;20083;-73
2024/03/02 05:20:31;;;;;;;29.77;20.35;;;12.30;74.80;;;;;;5020962;28;20429;-73
2024/03/02 05:23:11;;;;;;;31.38;21.52;;;12.30;74.80;;;;;;5020563;28;20100;-73
2024/03/02 05:25:50;;;;;;;29.35;20.95;;;12.30;74.90;;;;;;5020045;28;20809;-72
2024/03/02 05:28:15;;;;;;;31.50;21.45;;;12.30;74.70;;;;;;5021244;28;20183;-73
2024/03/02 05:30:42;;;;;;;30.40;20.35;;;12.30;74.70;;;;;;5021623;28;20060;-73
2024/03/02 05:33:12;;;;;;;29.58;20.17;;;12.30;74.90;;;;;;5002793;28;20091;-73
2024/03/02 05:35:43;;;;;;;28.20;20.05;;;12.30;74.90;;;;;;5021851;28;20029;-74
2024/03/02 05:38:15;;;;;;;25.27;19.07;;;12.30;75.00;;;;;;5022033;28;20091;-73
2024/03/02 05:40:41;;;;;;;29.48;18.95;;;12.30;75.00;;;;;;5022369;28;20288;-73
2024/03/02 05:43:07;;;;;;;29.45;18.88;;;12.30;74.80;;;;;;5001726;28;20036;-73
2024/03/02 05:45:45;;;;;;;27.05;18.92;;;12.30;74.90;;;;;;5020900;28;20041;-73
2024/03/02 05:48:14;;;;;;;26.92;18.55;;;12.30;74.60;;;;;;5020864;28;20468;-73
2024/03/02 05:50:48;;;;;;;26.13;18.52;;;12.30;74.50;;;;;;5002839;28;20030;-73
2024/03/02 05:53:26;;;;;;;25.67;18.27;;;12.30;74.30;;;;;;5004660;28;20194;-73
2024/03/02 05:55:55;;;;;;;29.02;18.35;;;12.30;74.60;;;;;;5019353;28;20125;-73
2024/03/02 05:58:42;;;;;;;26.55;17.25;;;12.30;74.50;;;;;;5018818;28;20048;-74
2024/03/02 06:03:59;;;;;;;24.92;17.83;;;12.30;74.60;;;;;;5021628;28;20061;-72
2024/03/02 06:06:28;;;;;;;32.92;19.02;;;12.30;74.50;;;;;;5018666;28;20037;-73
2024/03/02 06:08:54;;;;;;;27.20;19.05;;;12.30;74.60;;;;;;5021271;28;20515;-72
2024/03/02 06:11:26;;;;;;;30.60;19.27;;;12.30;74.20;;;;;;5020088;28;20982;-73
2024/03/02 06:13:52;;;;;;;31.27;19.45;;;12.30;73.80;;;;;;5019631;28;20037;-73
2024/03/02 06:16:18;;;;;;;29.42;19.33;;;12.30;73.50;;;;;;5021051;28;20097;-73
2024/03/02 06:18:44;;;;;;;29.30;19.25;;;12.30;73.10;;;;;;5019840;28;20525;-72
2024/03/02 06:21:15;;;;;;;28.88;20.30;;;12.30;72.70;;;;;;5021131;28;20042;-71
2024/03/02 06:23:44;;;;;;;33.15;21.58;;;12.30;72.40;;;;;;5020419;28;20180;-73
2024/03/02 06:26:22;;;;;;;30.80;21.48;;;12.30;71.90;;;;;;5019231;28;20049;-72
2024/03/02 06:28:54;;;;;;;31.73;21.38;;;12.20;71.00;;;;;;5020940;28;20120;-73
2024/03/02 06:31:22;;;;;;;29.52;20.17;;;12.20;71.40;;;;;;5021993;28;20072;-72
2024/03/02 06:33:52;;;;;;;30.77;20.05;;;12.20;71.50;;;;;;5021782;28;20107;-74
2024/03/02 06:36:18;;;;;;;32.65;20.50;;;12.20;71.40;;;;;;5021036;28;20033;-73
2024/03/02 06:38:44;;;;;;;28.52;19.63;;;12.20;71.30;;;;;;5001624;28;20423;-74
2024/03/02 06:41:10;;;;;;;29.50;20.67;;;12.20;71.20;;;;;;5017747;28;20555;-74
2024/03/02 06:43:42;;;;;;;30.13;21.08;;;12.20;71.00;;;;;;5020825;28;20049;-74
2024/03/02 06:46:14;;;;;;;33.63;21.83;;;12.20;71.00;;;;;;5003528;28;20068;-77
2024/03/02 06:48:49;;;;;;;35.90;24.17;;;12.20;70.40;;;;;;5019090;28;20120;-76
2024/03/02 06:51:15;;;;;;;34.90;23.95;;;12.20;70.50;;;;;;4999907;28;20048;-78
2024/03/02 06:53:47;;;;;;;38.33;23.65;;;12.10;71.00;;;;;;5017832;28;20064;-79
2024/03/02 06:56:18;;;;;;;37.42;24.55;;;12.10;71.30;;;;;;4985502;28;20036;-80
2024/03/02 06:58:47;;;;;;;37.08;24.23;;;12.10;70.90;;;;;;5018227;28;20026;-77
2024/03/02 07:01:16;;;;;;;39.33;24.95;;;12.00;70.70;;;;;;5018623;28;20188;-79
2024/03/02 07:03:56;;;;;;;38.45;24.92;;;12.00;70.80;;;;;;5016102;28;20099;-76
2024/03/02 07:06:22;;;;;;;37.33;24.67;;;12.00;70.50;;;;;;5017794;28;20033;-78
2024/03/02 07:08:51;;;;;;;39.85;24.88;;;12.00;70.90;;;;;;5019219;28;20030;-75
2024/03/02 07:11:17;;;;;;;39.28;24.60;;;12.00;70.50;;;;;;5019038;28;20025;-76
2024/03/02 07:13:56;;;;;;;37.10;25.35;;;11.90;70.50;;;;;;5020915;28;21191;-76
2024/03/02 07:16:32;;;;;;;38.70;25.13;;;11.90;71.00;;;;;;5018473;28;20046;-77
2024/03/02 07:19:07;;;;;;;37.83;24.83;;;11.90;71.20;;;;;;5020077;28;20120;-76
2024/03/02 07:21:33;;;;;;;41.95;25.15;;;11.90;71.70;;;;;;5018591;28;20044;-76
2024/03/02 07:24:05;;;;;;;35.85;24.98;;;11.90;71.90;;;;;;5018397;28;20029;-77
2024/03/02 07:26:37;;;;;;;39.70;25.05;;;11.90;72.10;;;;;;5017319;28;20041;-78
2024/03/02 07:29:08;;;;;;;39.20;23.90;;;11.80;71.80;;;;;;5019095;28;20036;-77
2024/03/02 07:31:55;;;;;;;38.33;24.77;;;11.90;72.40;;;;;;5019423;28;20037;-77
2024/03/02 07:34:24;;;;;;;39.47;24.48;;;11.90;72.50;;;;;;5019286;28;20030;-77
2024/03/02 07:36:53;;;;;;;40.35;24.20;;;11.90;72.30;;;;;;5020352;28;20037;-76
2024/03/02 07:39:29;;;;;;;35.50;24.67;;;11.80;71.40;;;;;;5016373;28;20037;-76
2024/03/02 07:42:10;;;;;;;40.05;24.73;;;11.90;71.40;;;;;;5019768;28;20042;-76
2024/03/02 07:44:55;;;;;;;39.58;25.38;;;11.90;71.40;;;;;;5021271;28;20072;-77
2024/03/02 07:47:26;;;;;;;38.30;24.52;;;11.80;71.10;;;;;;5017735;28;20041;-77
2024/03/02 07:49:55;;;;;;;40.28;23.17;;;11.80;71.00;;;;;;4990291;28;20156;-76
2024/03/02 07:52:24;;;;;;;37.38;24.50;;;11.80;71.60;;;;;;5017549;28;20033;-76
2024/03/02 07:54:56;;;;;;;36.70;24.40;;;11.90;71.50;;;;;;5016462;28;20030;-76
2024/03/02 07:57:31;;;;;;;38.13;23.90;;;11.90;71.90;;;;;;5016741;28;20474;-75
2024/03/02 07:59:59;;;;;;;35.00;23.73;;;11.90;71.80;;;;;;5012178;28;20065;-75
2024/03/02 08:02:25;;;;;;;36.13;24.60;;;11.80;71.50;;;;;;5015884;28;20030;-77
2024/03/02 08:04:51;;;;;;;38.10;24.27;;;11.90;71.20;;;;;;5002520;28;20382;-76
2024/03/02 08:07:17;;;;;;;38.22;24.63;;;11.90;71.10;;;;;;5015960;28;20508;-77
2024/03/02 08:09:43;;;;;;;34.83;22.63;;;11.90;71.50;;;;;;5018437;28;20038;-77
2024/03/02 08:12:09;;;;;;;35.00;22.50;;;12.00;71.70;;;;;;5021484;28;20045;-76
2024/03/02 08:14:36;;;;;;;34.83;23.05;;;11.90;71.80;;;;;;5017470;28;20061;-78
2024/03/02 08:17:02;;;;;;;33.25;22.17;;;11.90;71.80;;;;;;5017981;28;20870;-76
2024/03/02 08:19:48;;;;;;;32.22;21.98;;;11.90;71.80;;;;;;5016519;28;20527;-76
2024/03/02 08:22:15;;;;;;;33.90;21.85;;;12.00;71.80;;;;;;4999788;28;20056;-83
2024/03/02 08:24:41;;;;;;;36.10;23.00;;;12.00;71.50;;;;;;5000078;28;20116;-78
2024/03/02 08:27:07;;;;;;;34.83;22.52;;;12.00;71.30;;;;;;4999980;28;20033;-81
2024/03/02 08:29:33;;;;;;;33.30;20.92;;;12.00;71.10;;;;;;5018030;28;20057;-83
2024/03/02 08:31:59;;;;;;;29.30;20.58;;;12.00;71.00;;;;;;5020669;28;20488;-81
2024/03/02 08:34:25;;;;;;;32.83;20.75;;;12.10;71.20;;;;;;5018085;28;20447;-79
2024/03/02 08:36:51;;;;;;;30.25;19.77;;;12.10;71.40;;;;;;5017099;28;20061;-80
2024/03/02 08:39:19;;;;;;;32.78;20.25;;;12.10;71.80;;;;;;5021255;28;20037;-82
2024/03/02 08:41:46;;;;;;;37.17;19.88;;;12.10;71.80;;;;;;5021857;28;20049;-82
2024/03/02 08:44:13;;;;;;;32.88;20.48;;;12.10;72.00;;;;;;5020252;28;20037;-77
2024/03/02 08:46:39;;;;;;;30.38;20.15;;;12.10;72.00;;;;;;5018093;28;20038;-78
2024/03/02 08:49:06;;;;;;;35.70;20.40;;;12.10;72.00;;;;;;5016911;28;20079;-82
2024/03/02 08:51:54;;;;;;;30.27;19.90;;;12.20;72.70;;;;;;5019341;28;20519;-85
2024/03/02 08:54:21;;;;;;;32.13;20.00;;;12.20;72.20;;;;;;5001890;28;20038;-86
2024/03/02 08:56:49;;;;;;;30.42;17.27;;;12.30;72.50;;;;;;5001151;28;20041;-84
2024/03/02 08:59:16;;;;;;;23.63;14.02;;;12.30;75.50;;;;;;5021283;28;20065;-83
2024/03/02 09:01:43;;;;;;;28.77;14.00;;;12.40;77.30;;;;;;5027026;28;20042;-82
2024/03/02 09:04:09;;;;;;;25.23;15.10;;;12.50;78.70;;;;;;5028187;28;20045;-85
2024/03/02 09:06:35;;;;;;;23.83;16.42;;;12.60;77.60;;;;;;5026282;28;20041;-83
2024/03/02 09:09:01;;;;;;;26.83;17.27;;;12.60;76.50;;;;;;4991007;28;20029;-84
2024/03/02 09:11:27;;;;;;;27.38;17.75;;;12.60;75.80;;;;;;5025620;28;20504;-83
2024/03/02 09:13:54;;;;;;;30.50;17.80;;;12.70;74.30;;;;;;5025185;28;20041;-88
2024/03/02 09:16:20;;;;;;;33.38;17.70;;;12.70;74.20;;;;;;5021604;28;20040;-92
2024/03/02 09:18:47;;;;;;;27.25;16.52;;;12.70;73.60;;;;;;5023778;28;20077;-84
2024/03/02 09:21:13;;;;;;;29.95;17.83;;;12.70;73.40;;;;;;5023169;28;20087;-89
2024/03/02 09:23:40;;;;;;;31.65;18.63;;;12.70;73.00;;;;;;5023869;28;20037;-87
2024/03/02 09:26:06;;;;;;;25.95;15.90;;;12.70;72.80;;;;;;5023771;28;20151;-83
2024/03/02 09:28:32;;;;;;;27.30;16.50;;;12.80;72.70;;;;;;5022660;28;20029;-83
2024/03/02 09:30:58;;;;;;;22.10;14.63;;;12.70;72.70;;;;;;5003847;28;20115;-80
2024/03/02 09:33:24;;;;;;;21.15;12.13;;;12.80;75.00;;;;;;5020563;28;20045;-80
2024/03/02 09:35:50;;;;;;;31.65;12.98;;;12.90;77.70;;;;;;5001241;28;20120;-79
2024/03/02 09:38:16;;;;;;;19.83;12.90;;;13.00;78.90;;;;;;5022174;28;20029;-80
2024/03/02 09:40:43;;;;;;;23.58;12.30;;;13.10;79.60;;;;;;5003956;28;20107;-80
2024/03/02 09:43:09;;;;;;;19.05;12.07;;;13.20;79.70;;;;;;5024946;28;20033;-79
2024/03/02 09:45:36;;;;;;;21.77;11.82;;;13.30;79.50;;;;;;5003238;28;20037;-79
2024/03/02 09:48:20;;;;;;;20.50;11.65;;;13.30;79.10;;;;;;4972589;28;20038;-80
2024/03/02 09:50:47;;;;;;;17.52;10.95;;;13.40;78.90;;;;;;5005429;28;20046;-80
2024/03/02 09:53:14;;;;;;;22.42;10.63;;;13.50;78.50;;;;;;4973237;28;20067;-82
2024/03/02 09:55:43;;;;;;;20.42;11.43;;;13.60;78.30;;;;;;4994034;28;20040;-84
2024/03/02 09:58:09;;;;;;;16.98;11.65;;;13.70;78.10;;;;;;5028479;28;20099;-82
2024/03/02 10:00:35;;;;;;;19.95;10.50;;;13.80;77.90;;;;;;5023500;28;20038;-87
2024/03/02 10:03:02;;;;;;;19.42;10.40;;;13.90;78.00;;;;;;5006181;28;20040;-84
2024/03/02 10:05:28;;;;;;;19.92;11.52;;;14.00;77.70;;;;;;5024043;28;20060;-85
2024/03/02 10:08:04;;;;;;;17.70;10.18;;;14.10;77.90;;;;;;4991780;28;20059;-84
2024/03/02 10:10:40;;;;;;;19.83;10.02;;;14.20;77.80;;;;;;4968038;28;20120;-82
2024/03/02 10:13:13;;;;;;;16.20;9.68;;;14.30;77.70;;;;;;4998967;28;20045;-83
2024/03/02 10:15:40;;;;;;;15.55;9.30;;;14.30;77.50;;;;;;4999579;28;20042;-84
2024/03/02 10:18:13;;;;;;;16.42;9.98;;;14.40;77.30;;;;;;5003608;28;20169;-84
2024/03/02 10:20:40;;;;;;;16.42;9.93;;;14.50;77.20;;;;;;5006024;28;20501;-89
2024/03/02 10:23:17;;;;;;;15.07;9.75;;;14.60;77.30;;;;;;4989899;28;20042;-85
2024/03/02 10:25:45;;;;;;;17.23;8.98;;;14.60;77.30;;;;;;4986888;28;20054;-87
2024/03/02 10:28:11;;;;;;;14.90;9.55;;;14.80;77.40;;;;;;4986493;28;20544;-84
2024/03/02 10:30:37;;;;;;;15.25;9.43;;;14.80;77.40;;;;;;5002502;28;20030;-84
2024/03/02 10:33:05;;;;;;;16.77;9.63;;;14.90;77.70;;;;;;4998920;28;20034;-84
2024/03/02 10:35:32;;;;;;;27.70;15.70;;;15.00;77.90;;;;;;5000303;28;20038;-78
2024/03/02 10:38:00;;;;;;;31.02;20.55;;;15.00;71.80;;;;;;5000216;28;20030;-78
2024/03/02 10:40:27;;;;;;;35.83;23.40;;;14.70;62.60;;;;;;5014437;28;20790;-79
2024/03/02 10:42:54;;;;;;;32.53;22.15;;;14.30;59.50;;;;;;5020543;28;20030;-78
2024/03/02 10:45:23;;;;;;;34.17;23.08;;;14.10;58.20;;;;;;4971173;28;20042;-79
2024/03/02 10:47:50;;;;;;;35.70;22.83;;;13.80;58.80;;;;;;5000552;28;20407;-79
2024/03/02 10:50:19;;;;;;;35.60;24.30;;;13.60;59.00;;;;;;5000285;28;20046;-79
2024/03/02 10:52:45;;;;;;;34.78;23.38;;;13.50;58.30;;;;;;5015008;28;20124;-79
2024/03/02 10:55:12;;;;;;;37.33;23.60;;;13.30;58.30;;;;;;5000383;28;20164;-81
2024/03/02 10:57:45;;;;;;;39.22;24.75;;;13.10;59.70;;;;;;5007724;28;20034;-80
2024/03/02 11:00:15;;;;;;;35.75;24.13;;;13.00;58.40;;;;;;5019669;28;20037;-78
2024/03/02 11:02:49;;;;;;;38.55;23.70;;;12.90;58.20;;;;;;4984711;28;20606;-79
2024/03/02 11:05:31;;;;;;;34.10;23.70;;;12.70;57.50;;;;;;4984169;28;20057;-79
2024/03/02 11:08:05;;;;;;;35.42;24.20;;;12.50;58.60;;;;;;4998948;28;20497;-76
2024/03/02 11:10:41;;;;;;;33.25;22.52;;;12.40;58.80;;;;;;4999718;28;20057;-75
2024/03/02 11:23:35;;;;;;;32.45;20.92;;;12.10;60.60;;;;;;5020084;28;20514;-76
2024/03/02 11:26:41;;;;;;;29.73;21.10;;;11.90;60.60;;;;;;5007652;28;20141;-76
2024/03/02 11:29:07;;;;;;;33.47;20.48;;;11.90;61.10;;;;;;5019753;28;20034;-75
2024/03/02 11:32:01;;;;;;;32.60;20.65;;;11.80;61.30;;;;;;5020556;28;20128;-75
2024/03/02 11:34:35;;;;;;;32.30;20.80;;;11.80;61.90;;;;;;5020443;28;20041;-75
2024/03/02 11:37:02;;;;;;;31.42;20.30;;;11.70;62.10;;;;;;5020711;28;20135;-74
2024/03/02 11:39:29;;;;;;;37.83;21.60;;;11.70;61.70;;;;;;5019108;28;20152;-76
2024/03/02 11:41:59;;;;;;;33.17;22.27;;;11.60;61.50;;;;;;5001883;28;20158;-77
2024/03/02 11:44:27;;;;;;;35.85;22.15;;;11.60;61.50;;;;;;5017262;28;20113;-76
2024/03/02 11:46:59;;;;;;;32.08;22.17;;;11.50;61.50;;;;;;5003419;28;20368;-77
2024/03/02 11:49:45;;;;;;;33.25;21.98;;;11.40;60.80;;;;;;5020272;28;20030;-77
2024/03/02 11:52:13;;;;;;;34.95;22.23;;;11.40;60.90;;;;;;5001747;28;20125;-77
2024/03/02 11:54:46;;;;;;;34.25;22.33;;;11.30;60.60;;;;;;5021485;28;20036;-75
2024/03/02 11:57:17;;;;;;;37.08;22.58;;;11.20;60.80;;;;;;4984339;28;20439;-75
2024/03/02 11:59:43;;;;;;;34.40;21.88;;;11.10;60.80;;;;;;5018515;28;20074;-76
2024/03/02 12:02:18;;;;;;;35.67;22.88;;;11.10;60.70;;;;;;5018926;28;20040;-75
2024/03/02 12:04:46;;;;;;;31.23;21.53;;;11.00;60.50;;;;;;5001723;28;20566;-73
2024/03/02 12:07:12;;;;;;;33.17;22.15;;;10.90;60.70;;;;;;5004581;28;20118;-75
2024/03/02 12:09:38;;;;;;;32.90;20.40;;;10.90;60.90;;;;;;4999487;28;20033;-75
2024/03/02 12:12:10;;;;;;;34.58;21.48;;;10.80;61.10;;;;;;5000934;28;20052;-75
2024/03/02 12:14:37;;;;;;;30.67;20.60;;;10.80;60.80;;;;;;5017812;28;20481;-76
2024/03/02 12:17:05;;;;;;;30.55;20.60;;;10.80;60.70;;;;;;5018096;28;20037;-76
2024/03/02 12:19:32;;;;;;;31.02;20.27;;;10.70;61.50;;;;;;5024296;28;20038;-75
2024/03/02 12:21:59;;;;;;;34.03;21.63;;;10.70;61.20;;;;;;5018233;28;20129;-75
2024/03/02 12:24:28;;;;;;;32.03;20.05;;;10.60;61.10;;;;;;5017777;28;20080;-74
2024/03/02 12:26:54;;;;;;;31.67;20.85;;;10.60;61.00;;;;;;5021169;28;20546;-74
2024/03/02 12:29:21;;;;;;;30.77;20.85;;;10.50;60.80;;;;;;5022688;28;20079;-74
2024/03/02 12:31:54;;;;;;;30.30;20.02;;;10.40;61.10;;;;;;5025418;28;20061;-75
2024/03/02 12:34:21;;;;;;;31.08;19.33;;;10.40;61.40;;;;;;5029273;28;20124;-74
2024/03/02 12:36:49;;;;;;;33.33;19.30;;;10.30;61.20;;;;;;5021760;28;20550;-75
2024/03/02 12:39:34;;;;;;;25.98;17.73;;;10.30;61.10;;;;;;5022577;28;20112;-74
2024/03/02 12:42:00;;;;;;;26.77;18.02;;;10.30;61.50;;;;;;5022454;28;20124;-76
2024/03/02 12:44:26;;;;;;;28.00;17.65;;;10.30;61.90;;;;;;5004306;28;20590;-76
2024/03/02 12:46:53;;;;;;;23.13;14.40;;;10.40;63.00;;;;;;5005761;28;20037;-76
2024/03/02 12:49:22;;;;;;;18.70;11.73;;;10.60;65.30;;;;;;5022196;28;20084;-78
2024/03/02 12:51:52;;;;;;;17.25;10.25;;;10.70;67.20;;;;;;5022225;28;20034;-78
2024/03/02 12:54:18;;;;;;;14.98;10.05;;;10.90;68.70;;;;;;5026559;28;20033;-77
2024/03/02 12:56:46;;;;;;;15.30;9.93;;;11.00;69.30;;;;;;5021947;28;20045;-77
2024/03/02 12:59:20;;;;;;;16.98;9.43;;;11.10;70.00;;;;;;5003311;28;20075;-78